createdAt,value
2023-04-02T00:02:33.663Z,76.28
2023-04-02T00:05:43.349Z,76.35
2023-04-02T00:08:44.968Z,76.37
2023-04-02T00:11:48.515Z,76.38
2023-04-02T00:14:54.638Z,76.36
2023-04-02T00:17:57.380Z,76.15
2023-04-02T00:21:08.405Z,76.30
2023-04-02T00:24:21.349Z,76.45
2023-04-02T00:27:26.208Z,76.43
2023-04-02T00:30:28.288Z,76.31
2023-04-02T00:33:46.989Z,76.34
2023-04-02T00:36:49.470Z,76.40
2023-04-02T00:39:53.023Z,76.27
2023-04-02T00:42:58.372Z,76.37
2023-04-02T00:46:08.587Z,76.12
2023-04-02T00:49:23.970Z,76.23
2023-04-02T00:52:28.395Z,76.31
2023-04-02T00:55:37.087Z,76.24
2023-04-02T00:58:40.198Z,76.37
2023-04-02T01:01:41.846Z,76.32
2023-04-02T01:04:52.758Z,76.23
2023-04-02T01:08:21.310Z,76.28
2023-04-02T01:11:41.574Z,76.30
2023-04-02T01:14:57.851Z,76.23
2023-04-02T01:18:11.556Z,76.27
2023-04-02T01:21:19.135Z,76.23
2023-04-02T01:24:21.490Z,76.11
2023-04-02T01:27:29.544Z,76.12
2023-04-02T01:30:33.197Z,76.20
2023-04-02T01:33:35.197Z,76.22
2023-04-02T01:36:39.759Z,76.10
2023-04-02T01:40:19.523Z,76.12
2023-04-02T01:43:51.279Z,76.03
2023-04-02T01:46:52.858Z,76.05
2023-04-02T01:50:19.710Z,76.02
2023-04-02T01:53:23.313Z,75.92
2023-04-02T01:56:26.575Z,75.83
2023-04-02T01:59:28.637Z,76.00
2023-04-02T02:02:30.273Z,76.08
2023-04-02T02:05:32.465Z,76.12
2023-04-02T02:08:40.097Z,76.08
2023-04-02T02:11:41.791Z,75.90
2023-04-02T02:14:48.752Z,75.91
2023-04-02T02:17:51.130Z,75.91
2023-04-02T02:20:53.628Z,75.96
2023-04-02T02:23:55.716Z,75.88
2023-04-02T02:27:23.551Z,76.12
2023-04-02T02:30:48.176Z,76.00
2023-04-02T02:33:51.772Z,75.98
2023-04-02T02:36:59.001Z,75.98
2023-04-02T02:40:01.386Z,76.02
2023-04-02T02:43:04.426Z,76.07
2023-04-02T02:46:08.026Z,76.04
2023-04-02T02:49:17.955Z,76.06
2023-04-02T02:52:23.111Z,75.99
2023-04-02T02:55:28.711Z,75.96
2023-04-02T02:58:31.691Z,76.05
2023-04-02T03:01:33.499Z,76.02
2023-04-02T03:04:36.098Z,76.06
2023-04-02T03:07:38.072Z,76.11
2023-04-02T03:10:45.613Z,76.17
2023-04-02T03:13:49.364Z,76.05
2023-04-02T03:16:56.609Z,75.98
2023-04-02T03:20:03.977Z,76.06
2023-04-02T03:23:27.261Z,76.10
2023-04-02T03:26:52.891Z,76.22
2023-04-02T03:30:27.394Z,76.35
2023-04-02T03:33:41.758Z,76.09
2023-04-02T03:37:02.504Z,75.46
2023-04-02T03:40:05.355Z,75.19
2023-04-02T03:43:18.701Z,75.32
2023-04-02T03:46:31.744Z,75.54
2023-04-02T03:49:43.306Z,75.63
2023-04-02T03:52:45.063Z,75.86
2023-04-02T03:55:46.736Z,75.97
2023-04-02T03:58:50.203Z,75.99
2023-04-02T04:02:27.092Z,75.87
2023-04-02T04:05:44.109Z,76.10
2023-04-02T04:08:48.966Z,76.09
2023-04-02T04:12:17.623Z,76.24
2023-04-02T04:15:22.787Z,76.29
2023-04-02T04:18:45.137Z,76.40
2023-04-02T04:21:46.824Z,76.45
2023-04-02T04:24:48.576Z,76.56
2023-04-02T04:28:11.780Z,76.64
2023-04-02T04:31:22.829Z,76.67
2023-04-02T04:34:35.219Z,76.93
2023-04-02T04:37:39.861Z,77.05
2023-04-02T04:40:49.030Z,77.08
2023-04-02T04:44:04.018Z,77.06
2023-04-02T04:47:15.367Z,77.06
2023-04-02T04:50:29.128Z,76.98
2023-04-02T04:53:31.574Z,77.02
2023-04-02T04:56:33.325Z,76.99
2023-04-02T04:59:52.581Z,76.94
2023-04-02T05:03:06.592Z,76.97
2023-04-02T05:06:32.341Z,76.88
2023-04-02T05:09:52.781Z,76.90
2023-04-02T05:13:17.597Z,76.85
2023-04-02T05:16:24.242Z,76.95
2023-04-02T05:19:46.371Z,76.85
2023-04-02T05:22:53.425Z,76.80
2023-04-02T05:26:06.747Z,76.84
2023-04-02T05:29:16.188Z,76.83
2023-04-02T05:32:23.286Z,76.81
2023-04-02T05:35:31.258Z,76.77
2023-04-02T05:38:35.833Z,76.76
2023-04-02T05:41:43.371Z,76.76
2023-04-02T05:44:57.820Z,76.68
2023-04-02T05:48:01.931Z,76.64
2023-04-02T05:51:06.237Z,76.62
2023-04-02T05:54:17.243Z,76.59
2023-04-02T05:57:29.619Z,76.63
2023-04-02T06:00:51.878Z,76.67
2023-04-02T06:04:06.613Z,76.68
2023-04-02T06:07:16.011Z,76.47
2023-04-02T06:10:25.010Z,76.62
2023-04-02T06:13:27.532Z,76.43
2023-04-02T06:16:30.262Z,76.30
2023-04-02T06:19:37.581Z,76.31
2023-04-02T06:22:40.305Z,76.19
2023-04-02T06:25:49.648Z,76.28
2023-04-02T06:29:14.449Z,76.18
2023-04-02T06:32:16.180Z,75.95
2023-04-02T06:35:17.851Z,76.00
2023-04-02T06:38:24.335Z,76.29
2023-04-02T06:41:25.981Z,76.22
2023-04-02T06:44:30.435Z,76.17
2023-04-02T06:47:37.832Z,76.05
2023-04-02T06:50:55.268Z,76.17
2023-04-02T06:53:56.871Z,76.11
2023-04-02T06:56:59.021Z,76.15
2023-04-02T07:00:01.005Z,75.90
2023-04-02T07:03:06.474Z,76.04
2023-04-02T07:06:17.908Z,75.98
2023-04-02T07:09:19.653Z,75.79
2023-04-02T07:12:25.229Z,75.72
2023-04-02T07:15:26.776Z,75.62
2023-04-02T07:18:31.859Z,75.92
2023-04-02T07:21:33.408Z,75.89
2023-04-02T07:24:34.985Z,75.81
2023-04-02T07:27:36.570Z,75.61
2023-04-02T07:30:38.284Z,75.55
2023-04-02T07:33:41.185Z,75.28
2023-04-02T07:36:43.654Z,75.39
2023-04-02T07:39:45.324Z,75.49
2023-04-02T07:42:46.843Z,75.06
2023-04-02T07:45:50.407Z,74.72
2023-04-02T07:48:52.080Z,74.65
2023-04-02T07:51:53.678Z,74.68
2023-04-02T07:54:55.329Z,74.51
2023-04-02T07:57:58.965Z,74.48
2023-04-02T08:01:01.445Z,74.36
2023-04-02T08:04:04.605Z,74.63
2023-04-02T08:07:06.224Z,74.44
2023-04-02T08:10:10.394Z,74.44
2023-04-02T08:13:12.045Z,74.29
2023-04-02T08:16:13.784Z,74.11
2023-04-02T08:19:15.470Z,74.14
2023-04-02T08:22:17.012Z,74.04
2023-04-02T08:25:18.573Z,73.78
2023-04-02T08:28:21.650Z,73.58
2023-04-02T08:31:23.350Z,73.47
2023-04-02T08:34:25.698Z,73.30
2023-04-02T08:37:27.306Z,73.19
2023-04-02T08:40:39.795Z,73.20
2023-04-02T08:44:09.408Z,72.90
2023-04-02T08:47:13.736Z,72.85
2023-04-02T08:50:36.552Z,72.94
2023-04-02T08:53:39.078Z,72.97
2023-04-02T08:56:44.360Z,73.03
2023-04-02T08:59:46.169Z,72.87
2023-04-02T09:02:55.167Z,73.13
2023-04-02T09:05:58.860Z,72.98
2023-04-02T09:09:00.606Z,72.85
2023-04-02T09:12:02.934Z,72.92
2023-04-02T09:15:10.933Z,72.82
2023-04-02T09:18:19.554Z,72.95
2023-04-02T09:21:21.257Z,72.85
2023-04-02T09:24:22.850Z,72.86
2023-04-02T09:27:30.244Z,73.06
2023-04-02T09:30:31.749Z,72.98
2023-04-02T09:33:46.435Z,73.03
2023-04-02T09:36:48.144Z,73.10
2023-04-02T09:39:49.941Z,73.23
2023-04-02T09:43:12.757Z,73.16
2023-04-02T09:46:24.932Z,73.51
2023-04-02T09:49:29.346Z,73.62
2023-04-02T09:52:31.025Z,74.04
2023-04-02T09:55:32.610Z,74.01
2023-04-02T09:58:34.113Z,74.17
2023-04-02T10:01:38.274Z,74.26
2023-04-02T10:04:43.583Z,74.30
2023-04-02T10:07:49.749Z,74.44
2023-04-02T10:10:53.281Z,74.49
2023-04-02T10:13:59.387Z,75.01
2023-04-02T10:17:22.655Z,75.07
2023-04-02T10:20:27.063Z,75.31
2023-04-02T10:23:30.717Z,75.68
2023-04-02T10:26:38.329Z,75.81
2023-04-02T10:30:05.366Z,75.87
2023-04-02T10:33:15.364Z,75.91
2023-04-02T10:36:41.839Z,76.04
2023-04-02T10:39:47.827Z,75.81
2023-04-02T10:43:19.394Z,76.05
2023-04-02T10:46:28.583Z,76.16
2023-04-02T10:49:41.379Z,76.22
2023-04-02T10:52:48.549Z,76.06
2023-04-02T10:55:56.482Z,76.03
2023-04-02T10:59:21.500Z,75.91
2023-04-02T11:02:46.501Z,75.95
2023-04-02T11:05:53.935Z,75.86
2023-04-02T11:09:02.751Z,75.81
2023-04-02T11:12:05.235Z,75.82
2023-04-02T11:15:17.123Z,75.82
2023-04-02T11:18:27.340Z,75.73
2023-04-02T11:21:59.656Z,75.91
2023-04-02T11:25:02.994Z,76.02
2023-04-02T11:28:29.887Z,75.91
2023-04-02T11:31:31.669Z,76.16
2023-04-02T11:34:42.504Z,75.90
2023-04-02T11:37:45.318Z,75.93
2023-04-02T11:40:51.632Z,75.91
2023-04-02T11:44:00.588Z,76.11
2023-04-02T11:47:25.219Z,75.93
2023-04-02T11:50:52.945Z,76.19
2023-04-02T11:53:54.889Z,76.09
2023-04-02T11:57:01.810Z,76.33
2023-04-02T12:00:06.562Z,76.31
2023-04-02T12:03:17.299Z,76.35
2023-04-02T12:06:38.466Z,76.36
2023-04-02T12:09:52.990Z,76.51
2023-04-02T12:12:54.548Z,76.35
2023-04-02T12:15:57.023Z,76.14
2023-04-02T12:18:59.515Z,76.05
2023-04-02T12:22:01.761Z,76.15
2023-04-02T12:25:18.334Z,76.02
2023-04-02T12:28:21.526Z,76.11
2023-04-02T12:31:24.552Z,76.07
2023-04-02T12:34:28.946Z,76.09
2023-04-02T12:37:30.973Z,76.09
2023-04-02T12:40:32.518Z,76.08
2023-04-02T12:43:35.014Z,76.05
2023-04-02T12:46:36.626Z,76.14
2023-04-02T12:49:39.230Z,76.40
2023-04-02T12:52:44.969Z,76.37
2023-04-02T12:55:48.728Z,76.41
2023-04-02T12:58:58.526Z,76.53
2023-04-02T13:02:03.838Z,76.34
2023-04-02T13:05:05.604Z,76.47
2023-04-02T13:08:07.104Z,76.68
2023-04-02T13:11:09.201Z,76.48
2023-04-02T13:14:19.220Z,76.55
2023-04-02T13:17:42.293Z,76.59
2023-04-02T13:20:55.074Z,76.44
2023-04-02T13:23:56.629Z,76.39
2023-04-02T13:26:59.151Z,76.41
2023-04-02T13:30:08.298Z,76.40
2023-04-02T13:33:09.934Z,76.56
2023-04-02T13:36:14.636Z,76.58
2023-04-02T13:39:16.322Z,76.57
2023-04-02T13:42:17.882Z,76.46
2023-04-02T13:45:28.048Z,76.48
2023-04-02T13:48:29.781Z,76.60
2023-04-02T13:51:35.723Z,76.66
2023-04-02T13:54:46.963Z,76.78
2023-04-02T13:57:48.637Z,76.82
2023-04-02T14:00:50.341Z,76.90
2023-04-02T14:03:53.424Z,77.06
2023-04-02T14:07:14.010Z,76.75
2023-04-02T14:10:43.841Z,76.75
2023-04-02T14:14:06.580Z,77.07
2023-04-02T14:17:37.484Z,77.24
2023-04-02T14:20:48.704Z,77.23
2023-04-02T14:24:08.900Z,77.09
2023-04-02T14:27:32.709Z,76.95
2023-04-02T14:31:02.141Z,77.15
2023-04-02T14:34:32.218Z,77.10
2023-04-02T14:37:45.890Z,77.20
2023-04-02T14:40:50.056Z,77.15
2023-04-02T14:43:54.791Z,77.24
2023-04-02T14:47:02.220Z,77.33
2023-04-02T14:50:12.809Z,77.12
2023-04-02T14:53:20.145Z,77.52
2023-04-02T14:56:24.205Z,77.23
2023-04-02T14:59:29.072Z,77.25
2023-04-02T15:02:41.422Z,77.36
2023-04-02T15:05:49.743Z,77.54
2023-04-02T15:09:09.314Z,77.67
2023-04-02T15:12:23.996Z,77.53
2023-04-02T15:15:39.357Z,77.70
2023-04-02T15:18:42.315Z,77.97
2023-04-02T15:22:02.180Z,77.89
2023-04-02T15:25:13.659Z,77.98
2023-04-02T15:28:26.999Z,77.78
2023-04-02T15:31:28.720Z,77.69
2023-04-02T15:34:33.293Z,77.74
2023-04-02T15:37:44.188Z,77.80
2023-04-02T15:40:48.714Z,77.64
2023-04-02T15:44:22.621Z,77.78
2023-04-02T15:47:59.444Z,77.48
2023-04-02T15:51:15.140Z,77.70
2023-04-02T15:54:37.063Z,77.78
2023-04-02T15:57:57.467Z,78.02
2023-04-02T16:01:17.694Z,77.83
2023-04-02T16:04:25.594Z,77.98
2023-04-02T16:07:56.423Z,78.05
2023-04-02T16:10:58.047Z,78.02
2023-04-02T16:14:18.363Z,78.12
2023-04-02T16:17:25.870Z,78.19
2023-04-02T16:20:40.502Z,78.37
2023-04-02T16:23:42.359Z,78.35
2023-04-02T16:26:59.225Z,78.53
2023-04-02T16:30:16.554Z,78.67
2023-04-02T16:33:25.822Z,78.29
2023-04-02T16:36:50.615Z,78.43
2023-04-02T16:40:28.868Z,78.44
2023-04-02T16:43:38.586Z,78.58
2023-04-02T16:46:52.313Z,78.53
2023-04-02T16:50:02.918Z,78.34
2023-04-02T16:53:15.562Z,78.39
2023-04-02T16:56:49.618Z,78.77
2023-04-02T17:00:09.638Z,78.55
2023-04-02T17:03:20.400Z,78.37
2023-04-02T17:06:32.072Z,78.38
2023-04-02T17:09:49.670Z,78.35
2023-04-02T17:13:02.919Z,78.40
2023-04-02T17:16:19.020Z,78.39
2023-04-02T17:19:21.082Z,78.54
2023-04-02T17:22:23.082Z,78.55
2023-04-02T17:25:28.499Z,78.55
2023-04-02T17:28:32.575Z,78.19
2023-04-02T17:31:34.804Z,78.39
2023-04-02T17:34:36.555Z,78.43
2023-04-02T17:37:43.390Z,78.53
2023-04-02T17:41:14.540Z,78.35
2023-04-02T17:44:25.233Z,78.58
2023-04-02T17:48:11.726Z,78.48
2023-04-02T17:51:42.764Z,78.45
2023-04-02T17:54:50.436Z,78.37
2023-04-02T17:57:57.943Z,78.64
2023-04-02T18:01:41.917Z,78.76
2023-04-02T18:05:12.027Z,78.59
2023-04-02T18:08:25.947Z,78.62
2023-04-02T18:11:52.781Z,78.76
2023-04-02T18:15:06.882Z,78.83
2023-04-02T18:18:19.333Z,78.80
2023-04-02T18:21:24.193Z,78.80
2023-04-02T18:25:00.643Z,78.69
2023-04-02T18:28:12.366Z,78.69
2023-04-02T18:31:27.039Z,79.04
2023-04-02T18:34:44.077Z,79.38
2023-04-02T18:37:58.757Z,78.81
2023-04-02T18:41:21.964Z,79.13
2023-04-02T18:44:35.484Z,79.08
2023-04-02T18:47:46.388Z,79.16
2023-04-02T18:50:48.795Z,79.35
2023-04-02T18:54:09.598Z,79.01
2023-04-02T18:57:15.742Z,78.87
2023-04-02T19:00:40.512Z,78.79
2023-04-02T19:03:49.555Z,78.77
2023-04-02T19:06:55.172Z,78.82
2023-04-02T19:10:03.045Z,78.70
2023-04-02T19:13:15.869Z,78.70
2023-04-02T19:16:25.357Z,78.89
2023-04-02T19:19:29.504Z,78.91
2023-04-02T19:22:50.063Z,78.65
2023-04-02T19:26:05.263Z,79.15
2023-04-02T19:29:35.153Z,79.06
2023-04-02T19:32:45.837Z,79.41
2023-04-02T19:35:53.968Z,79.02
2023-04-02T19:39:01.393Z,79.44
2023-04-02T19:42:16.564Z,79.52
2023-04-02T19:45:37.684Z,79.17
2023-04-02T19:49:00.589Z,79.09
2023-04-02T19:52:02.469Z,78.95
2023-04-02T19:55:04.464Z,79.30
2023-04-02T19:58:18.895Z,78.97
2023-04-02T20:01:21.574Z,79.32
2023-04-02T20:04:23.363Z,79.20
2023-04-02T20:07:25.267Z,79.17
2023-04-02T20:10:26.809Z,79.14
2023-04-02T20:13:29.055Z,79.38
2023-04-02T20:16:30.679Z,79.12
2023-04-02T20:19:32.292Z,79.49
2023-04-02T20:22:33.944Z,79.08
2023-04-02T20:25:35.636Z,79.40
2023-04-02T20:28:37.155Z,79.34
2023-04-02T20:31:38.727Z,79.51
2023-04-02T20:34:44.610Z,79.18
2023-04-02T20:37:46.164Z,79.01
2023-04-02T20:40:47.749Z,79.11
2023-04-02T20:43:50.635Z,78.99
2023-04-02T20:46:52.249Z,79.39
2023-04-02T20:49:53.901Z,79.56
2023-04-02T20:52:58.128Z,79.45
2023-04-02T20:56:04.764Z,79.36
2023-04-02T20:59:06.465Z,79.69
2023-04-02T21:02:09.322Z,79.49
2023-04-02T21:05:10.925Z,79.41
2023-04-02T21:08:12.648Z,79.58
2023-04-02T21:11:14.828Z,79.35
2023-04-02T21:14:17.164Z,79.34
2023-04-02T21:17:18.835Z,79.60
2023-04-02T21:20:20.540Z,79.40
2023-04-02T21:23:22.301Z,79.59
2023-04-02T21:26:24.293Z,79.49
2023-04-02T21:29:25.843Z,79.84
2023-04-02T21:32:27.501Z,79.74
2023-04-02T21:35:28.984Z,79.73
2023-04-02T21:38:30.512Z,79.82
2023-04-02T21:41:37.739Z,79.86
2023-04-02T21:44:39.381Z,79.72
2023-04-02T21:47:40.951Z,79.55
2023-04-02T21:50:42.511Z,79.70
2023-04-02T21:53:44.965Z,79.71
2023-04-02T21:56:47.574Z,79.96
2023-04-02T21:59:49.188Z,79.58
2023-04-02T22:02:50.881Z,79.68
2023-04-02T22:06:09.522Z,79.83
2023-04-02T22:09:13.655Z,79.65
2023-04-02T22:12:15.221Z,79.87
2023-04-02T22:15:17.040Z,79.99
2023-04-02T22:18:18.483Z,80.04
2023-04-02T22:21:20.485Z,80.37
2023-04-02T22:24:22.152Z,80.48
2023-04-02T22:27:23.709Z,80.22
2023-04-02T22:30:25.335Z,80.55
2023-04-02T22:33:27.061Z,80.30
2023-04-02T22:36:29.553Z,80.30
2023-04-02T22:39:31.300Z,80.42
2023-04-02T22:42:33.519Z,80.17
2023-04-02T22:45:35.046Z,79.99
2023-04-02T22:48:37.026Z,80.09
2023-04-02T22:51:38.642Z,79.89
2023-04-02T22:54:40.231Z,80.28
2023-04-02T22:57:42.826Z,80.33
2023-04-02T23:00:45.089Z,80.20
2023-04-02T23:03:46.704Z,80.09
2023-04-02T23:06:48.446Z,80.81
2023-04-02T23:09:49.979Z,80.63
2023-04-02T23:12:51.673Z,80.51
2023-04-02T23:15:53.545Z,80.55
2023-04-02T23:18:55.393Z,80.64
2023-04-02T23:21:57.284Z,80.38
2023-04-02T23:24:58.922Z,80.66
2023-04-02T23:28:00.463Z,80.66
2023-04-02T23:31:03.390Z,81.04
2023-04-02T23:34:05.033Z,80.82
2023-04-02T23:37:06.545Z,80.54
2023-04-02T23:40:09.068Z,80.39
2023-04-02T23:43:10.627Z,80.21
2023-04-02T23:46:12.308Z,80.21
2023-04-02T23:49:13.963Z,80.01
2023-04-02T23:52:15.599Z,80.08
2023-04-02T23:55:17.267Z,80.37
2023-04-02T23:58:18.765Z,80.60
